Time;durP1;ratioP1;P1;durP2;ratioP2;P2;SDS_P1;SDS_P2;PMS_P1;PMS_P2;Temp;Humidity;BMP_temperature;BMP_pressure;BME280_temperature;BME280_humidity;BME280_pressure;Samples;Min_cycle;Max_cycle;Signal;HPM_P1;HPM_P2
2022/10/11 00:01:33;;;;;;;19.10;2.55;;;35.40;38.30;;;;;;4930432;29;20454;-61
2022/10/11 00:03:59;;;;;;;15.85;2.67;;;35.40;38.80;;;;;;4929980;29;20083;-62
2022/10/11 00:06:26;;;;;;;19.33;2.20;;;35.30;39.00;;;;;;4930107;29;20127;-62
2022/10/11 00:08:52;;;;;;;12.93;2.80;;;35.30;39.10;;;;;;4929383;29;20071;-62
2022/10/11 00:11:18;;;;;;;19.25;2.35;;;35.30;39.30;;;;;;4929564;29;20094;-62
2022/10/11 00:13:45;;;;;;;19.80;2.90;;;35.20;39.10;;;;;;4928792;29;20111;-61
2022/10/11 00:16:13;;;;;;;15.02;2.10;;;35.20;40.20;;;;;;5011666;28;20079;-63
2022/10/11 00:18:39;;;;;;;16.08;2.30;;;35.10;38.90;;;;;;4929870;29;20028;-62
2022/10/11 00:21:09;;;;;;;13.65;2.58;;;34.90;39.90;;;;;;4929825;29;20051;-61
2022/10/11 00:23:35;;;;;;;12.38;3.13;;;34.90;39.80;;;;;;4929326;29;20170;-61
2022/10/11 00:26:05;;;;;;;16.80;2.88;;;34.80;39.90;;;;;;4928962;29;20091;-62
2022/10/11 00:28:32;;;;;;;26.52;2.70;;;34.80;40.70;;;;;;4928511;29;20546;-62
2022/10/11 00:30:58;;;;;;;14.00;2.60;;;34.70;39.70;;;;;;4928606;29;20083;-60
2022/10/11 00:33:25;;;;;;;13.18;2.38;;;34.70;39.50;;;;;;4929704;29;20174;-63
2022/10/11 00:35:51;;;;;;;12.27;2.35;;;34.60;39.60;;;;;;4928859;29;20091;-63
2022/10/11 00:38:18;;;;;;;10.68;2.55;;;34.50;40.80;;;;;;4928105;28;20117;-63
2022/10/11 00:40:45;;;;;;;12.95;2.45;;;34.40;39.90;;;;;;4928987;29;20095;-63
2022/10/11 00:43:20;;;;;;;18.02;2.92;;;34.40;39.90;;;;;;4929413;29;21608;-59
2022/10/11 00:46:13;;;;;;;14.50;2.42;;;34.30;39.90;;;;;;4929207;29;20534;-62
2022/10/11 00:48:49;;;;;;;14.73;2.28;;;34.20;40.30;;;;;;4907017;29;20262;-62
2022/10/11 00:51:43;;;;;;;17.95;2.70;;;34.10;40.00;;;;;;4908294;29;20609;-60
2022/10/11 00:54:14;;;;;;;10.02;2.38;;;34.10;40.20;;;;;;4908440;29;20096;-61
2022/10/11 00:56:43;;;;;;;19.85;2.95;;;33.90;41.00;;;;;;4908295;29;20188;-63
2022/10/11 00:59:17;;;;;;;15.80;3.03;;;33.80;40.90;;;;;;4908036;29;20550;-62
2022/10/11 01:01:43;;;;;;;18.00;3.30;;;33.70;41.10;;;;;;4908677;29;20524;-61
2022/10/11 01:04:10;;;;;;;24.05;3.63;;;33.70;41.40;;;;;;4908182;29;20083;-61
2022/10/11 01:06:36;;;;;;;24.92;4.00;;;33.60;41.50;;;;;;4908113;29;20530;-61
2022/10/11 01:09:03;;;;;;;25.85;4.60;;;33.50;41.90;;;;;;4908205;29;20512;-62
2022/10/11 01:11:31;;;;;;;24.40;3.85;;;33.40;41.80;;;;;;4907712;29;20556;-61
2022/10/11 01:14:00;;;;;;;22.85;3.88;;;33.40;42.20;;;;;;4908312;29;20119;-62
2022/10/11 01:16:58;;;;;;;23.02;3.53;;;33.30;42.00;;;;;;4908181;29;20084;-60
2022/10/11 01:19:34;;;;;;;22.77;3.95;;;33.30;42.10;;;;;;4905375;29;20095;-62
2022/10/11 01:22:42;;;;;;;19.23;3.67;;;33.20;42.10;;;;;;4907153;29;20085;-58
2022/10/11 01:25:20;;;;;;;14.13;3.13;;;33.10;42.10;;;;;;4914136;29;20083;-61
2022/10/11 01:28:15;;;;;;;23.63;3.45;;;33.10;42.30;;;;;;4928514;28;20067;-62
2022/10/11 01:30:42;;;;;;;18.75;3.28;;;33.00;42.20;;;;;;4928376;29;20081;-61
2022/10/11 01:33:20;;;;;;;15.90;3.70;;;33.00;42.50;;;;;;4929177;29;20090;-63
2022/10/11 01:36:06;;;;;;;26.35;3.35;;;32.90;42.70;;;;;;4928674;29;20174;-60
2022/10/11 01:38:39;;;;;;;35.08;4.60;;;32.90;42.80;;;;;;4928356;28;20079;-61
2022/10/11 01:41:19;;;;;;;27.15;4.30;;;32.80;42.40;;;;;;4927811;29;20095;-63
2022/10/11 01:43:48;;;;;;;33.97;4.80;;;32.80;42.50;;;;;;4930604;29;20163;-61
2022/10/11 01:46:15;;;;;;;27.00;5.35;;;32.70;42.60;;;;;;4932171;29;20091;-62
2022/10/11 01:48:50;;;;;;;31.55;5.55;;;32.70;42.80;;;;;;4931496;29;20095;-62
2022/10/11 01:51:21;;;;;;;38.20;4.47;;;32.70;43.10;;;;;;4932128;29;20173;-62
2022/10/11 01:54:24;;;;;;;45.70;5.28;;;32.60;43.70;;;;;;4931508;29;20107;-63
2022/10/11 01:57:09;;;;;;;38.97;5.28;;;32.50;43.60;;;;;;4930656;29;20091;-63
2022/10/11 01:59:40;;;;;;;40.90;6.10;;;32.50;43.50;;;;;;4932083;29;20103;-62
2022/10/11 02:02:33;;;;;;;45.00;6.13;;;32.40;43.30;;;;;;4928776;29;20209;-61
2022/10/11 02:05:15;;;;;;;47.90;5.90;;;32.40;43.50;;;;;;4954646;28;20084;-62
2022/10/11 02:08:06;;;;;;;41.67;7.03;;;32.40;68.90;;;;;;4932229;29;20394;-62
2022/10/11 02:11:21;;;;;;;47.83;8.05;;;32.10;65.70;;;;;;4930952;29;20054;-60
2022/10/11 02:14:15;;;;;;;40.65;7.30;;;32.40;78.60;;;;;;4890545;29;20047;-61
2022/10/11 02:16:48;;;;;;;67.15;8.93;;;32.30;69.40;;;;;;4891591;29;20033;-63
2022/10/11 02:19:19;;;;;;;57.58;8.10;;;32.00;43.90;;;;;;4891777;29;20439;-63
2022/10/11 02:21:53;;;;;;;47.00;7.95;;;32.00;44.50;;;;;;4891934;29;20211;-61
2022/10/11 02:24:26;;;;;;;45.60;7.35;;;31.90;44.70;;;;;;4890775;29;20109;-61
2022/10/11 02:26:55;;;;;;;44.90;7.35;;;31.90;44.70;;;;;;4891395;29;20101;-64
2022/10/11 02:29:23;;;;;;;48.55;8.27;;;31.80;44.50;;;;;;4891777;29;20077;-65
2022/10/11 02:31:50;;;;;;;65.32;7.82;;;31.80;44.80;;;;;;4891143;29;21396;-64
2022/10/11 02:34:22;;;;;;;60.63;6.80;;;31.80;44.70;;;;;;4891883;29;20499;-62
2022/10/11 02:37:15;;;;;;;48.40;10.18;;;31.70;45.30;;;;;;4891158;28;20176;-63
2022/10/11 02:40:02;;;;;;;49.42;8.00;;;31.70;45.10;;;;;;4890516;29;20303;-62
2022/10/11 02:42:37;;;;;;;36.28;8.98;;;31.60;45.00;;;;;;4890949;29;20208;-64
2022/10/11 02:45:17;;;;;;;55.40;7.25;;;31.50;45.40;;;;;;4891395;29;20077;-62
2022/10/11 02:47:44;;;;;;;34.15;6.60;;;31.50;45.40;;;;;;4888884;29;20088;-62
2022/10/11 02:50:13;;;;;;;43.78;7.50;;;31.50;45.60;;;;;;4910676;29;20095;-63
2022/10/11 02:52:39;;;;;;;42.45;6.80;;;31.50;45.70;;;;;;4930506;29;20076;-62
2022/10/11 02:55:06;;;;;;;37.50;7.55;;;31.40;45.60;;;;;;4930353;29;20131;-63
2022/10/11 02:57:33;;;;;;;39.42;8.00;;;30.90;62.50;;;;;;4930625;29;20118;-62
2022/10/11 02:59:59;;;;;;;45.08;8.00;;;;;;;;;;4930049;29;20078;-64
2022/10/11 03:02:26;;;;;;;50.30;8.20;;;31.10;79.40;;;;;;4928041;29;20035;-62
2022/10/11 03:04:52;;;;;;;76.85;16.77;;;31.10;79.00;;;;;;4930505;28;20101;-63
2022/10/11 03:07:19;;;;;;;56.53;13.05;;;31.20;78.80;;;;;;4929962;29;20062;-63
2022/10/11 03:09:45;;;;;;;59.25;15.10;;;30.60;78.60;;;;;;4930534;29;20058;-62
2022/10/11 03:12:12;;;;;;;68.30;15.77;;;31.10;78.80;;;;;;4930041;29;20055;-61
2022/10/11 03:14:38;;;;;;;66.30;16.55;;;31.00;82.20;;;;;;4929783;29;20055;-62
2022/10/11 03:17:04;;;;;;;72.78;15.68;;;;;;;;;;4930552;29;20055;-63
2022/10/11 03:19:32;;;;;;;55.90;12.60;;;31.00;88.70;;;;;;4928586;28;20063;-62
2022/10/11 03:21:59;;;;;;;49.83;10.77;;;31.10;47.70;;;;;;4930004;29;20019;-64
2022/10/11 03:24:25;;;;;;;44.38;10.30;;;31.20;90.10;;;;;;4930015;29;20109;-63
2022/10/11 03:26:51;;;;;;;40.80;10.68;;;30.40;47.10;;;;;;4931511;28;20051;-61
2022/10/11 03:29:18;;;;;;;51.97;12.38;;;30.80;88.50;;;;;;4931674;28;20037;-62
2022/10/11 03:31:44;;;;;;;42.42;11.63;;;;;;;;;;4930793;28;20101;-63
2022/10/11 03:34:11;;;;;;;47.33;11.32;;;30.60;87.60;;;;;;4931710;28;20092;-58
2022/10/11 03:36:37;;;;;;;40.92;11.63;;;;;;;;;;4929354;29;20026;-65
2022/10/11 03:39:04;;;;;;;55.15;14.52;;;30.70;81.50;;;;;;4928648;29;20028;-63
2022/10/11 03:41:30;;;;;;;51.20;12.98;;;30.90;67.80;;;;;;4929212;29;20020;-62
2022/10/11 03:43:57;;;;;;;58.20;11.57;;;;;;;;;;4928576;28;20364;-66
2022/10/11 03:46:23;;;;;;;49.65;10.20;;;30.30;72.50;;;;;;4929790;29;20024;-63
2022/10/11 03:48:50;;;;;;;45.65;10.63;;;;;;;;;;4929825;29;20032;-63
2022/10/11 03:51:16;;;;;;;44.53;9.68;;;30.40;48.80;;;;;;4931182;29;20038;-63
2022/10/11 03:53:43;;;;;;;47.05;8.25;;;30.00;88.10;;;;;;4929634;29;20692;-64
2022/10/11 03:56:09;;;;;;;35.42;8.63;;;30.50;86.00;;;;;;4929839;29;20039;-64
2022/10/11 03:58:36;;;;;;;44.40;8.90;;;30.50;80.60;;;;;;4929194;29;20082;-62
2022/10/11 04:01:02;;;;;;;36.83;9.35;;;30.30;48.30;;;;;;4930116;29;20062;-63
2022/10/11 04:03:28;;;;;;;45.63;10.27;;;30.50;80.70;;;;;;4926640;29;20034;-60
2022/10/11 04:05:55;;;;;;;40.53;9.57;;;30.40;68.50;;;;;;4929694;29;20565;-64
2022/10/11 04:08:21;;;;;;;31.13;8.63;;;30.00;84.20;;;;;;4929670;29;20024;-62
2022/10/11 04:10:48;;;;;;;27.25;7.35;;;29.90;74.30;;;;;;4929414;29;20025;-66
2022/10/11 04:13:16;;;;;;;39.92;7.95;;;28.40;49.70;;;;;;4929195;29;20210;-63
2022/10/11 04:15:42;;;;;;;37.70;8.25;;;30.50;76.30;;;;;;4928816;29;20078;-66
2022/10/11 04:18:09;;;;;;;35.20;8.18;;;30.10;50.60;;;;;;4929031;29;20030;-65
2022/10/11 04:20:36;;;;;;;32.30;8.35;;;29.50;86.50;;;;;;4928802;29;20019;-63
2022/10/11 04:23:02;;;;;;;42.05;8.20;;;;;;;;;;4929578;29;20419;-60
2022/10/11 04:25:29;;;;;;;47.20;9.75;;;;;;;;;;4928707;29;20028;-62
2022/10/11 04:27:55;;;;;;;30.58;8.82;;;;;;;;;;4928943;29;20509;-63
2022/10/11 04:30:22;;;;;;;34.50;8.65;;;;;;;;;;4929219;29;20043;-64
2022/10/11 04:32:48;;;;;;;32.17;7.32;;;29.70;90.80;;;;;;4929493;29;20031;-61
2022/10/11 04:35:15;;;;;;;36.35;8.70;;;29.30;83.20;;;;;;4929476;29;20034;-65
2022/10/11 04:37:41;;;;;;;40.70;8.57;;;29.40;90.40;;;;;;4928875;29;20062;-60
2022/10/11 04:40:09;;;;;;;33.75;7.75;;;29.60;52.60;;;;;;4930161;29;20027;-62
2022/10/11 04:42:35;;;;;;;32.65;7.97;;;29.20;91.80;;;;;;4929454;29;20028;-65
2022/10/11 04:45:01;;;;;;;31.13;7.72;;;29.90;88.00;;;;;;4929545;29;20027;-62
2022/10/11 04:47:28;;;;;;;31.60;8.45;;;;;;;;;;4929676;29;20028;-66
2022/10/11 04:49:54;;;;;;;45.22;8.80;;;;;;;;;;4929275;28;20026;-66
2022/10/11 04:52:21;;;;;;;42.83;7.75;;;29.60;54.40;;;;;;4928599;29;20068;-63
2022/10/11 04:54:47;;;;;;;43.40;9.05;;;29.00;91.30;;;;;;4929654;29;20166;-62
2022/10/11 04:57:14;;;;;;;32.83;8.82;;;29.10;67.40;;;;;;4929838;29;20507;-62
2022/10/11 04:59:40;;;;;;;36.92;8.77;;;29.40;90.80;;;;;;4929152;29;20352;-62
2022/10/11 05:02:06;;;;;;;42.08;8.45;;;29.00;87.40;;;;;;4929735;29;20463;-63
2022/10/11 05:04:33;;;;;;;37.15;8.30;;;29.10;91.30;;;;;;4926719;29;20049;-60
2022/10/11 05:06:59;;;;;;;35.95;8.60;;;29.10;92.10;;;;;;4928850;29;20034;-62
2022/10/11 05:09:26;;;;;;;30.02;7.85;;;;;;;;;;4929470;29;20028;-61
2022/10/11 05:11:52;;;;;;;35.22;8.77;;;28.80;77.10;;;;;;4928751;29;20035;-61
2022/10/11 05:14:18;;;;;;;38.58;10.00;;;28.80;69.40;;;;;;4928365;29;20043;-63
2022/10/11 05:16:45;;;;;;;36.65;8.77;;;29.40;91.40;;;;;;4927470;29;20035;-63
2022/10/11 05:19:11;;;;;;;32.30;8.43;;;29.10;69.90;;;;;;4928746;29;20027;-63
2022/10/11 05:21:37;;;;;;;36.47;8.90;;;29.20;92.10;;;;;;4929995;29;20123;-62
2022/10/11 05:24:04;;;;;;;37.15;9.52;;;28.80;91.80;;;;;;4927870;29;20041;-59
2022/10/11 05:26:30;;;;;;;41.47;9.73;;;28.70;91.80;;;;;;4928659;29;20110;-62
2022/10/11 05:28:57;;;;;;;42.80;10.55;;;29.00;92.40;;;;;;4929634;28;20035;-62
2022/10/11 05:31:23;;;;;;;38.72;10.45;;;29.40;59.00;;;;;;4929491;29;20044;-60
2022/10/11 05:33:50;;;;;;;32.70;10.10;;;;;;;;;;4929421;29;20038;-61
2022/10/11 05:36:17;;;;;;;34.60;10.30;;;28.80;91.30;;;;;;4929430;29;20402;-59
2022/10/11 05:38:43;;;;;;;37.92;10.23;;;28.60;93.00;;;;;;4929002;29;20024;-60
2022/10/11 05:41:13;;;;;;;54.03;11.30;;;28.30;88.10;;;;;;4929268;29;20419;-63
2022/10/11 05:43:39;;;;;;;65.40;26.55;;;28.50;91.90;;;;;;4928900;29;20032;-63
2022/10/11 05:46:05;;;;;;;57.03;15.57;;;29.10;93.00;;;;;;4928901;29;20027;-63
2022/10/11 05:48:32;;;;;;;55.63;31.65;;;28.80;91.60;;;;;;4928056;28;20043;-62
2022/10/11 05:51:01;;;;;;;59.95;24.85;;;28.40;93.60;;;;;;4928920;29;20402;-58
2022/10/11 05:53:28;;;;;;;54.28;15.65;;;28.30;92.10;;;;;;4928637;29;20036;-57
2022/10/11 05:55:54;;;;;;;40.30;13.43;;;28.70;90.80;;;;;;4928996;29;20054;-59
2022/10/11 05:58:21;;;;;;;37.28;11.43;;;28.80;61.30;;;;;;4928903;29;20024;-62
2022/10/11 06:00:47;;;;;;;51.70;12.50;;;28.30;91.70;;;;;;4929066;29;20158;-57
2022/10/11 06:03:14;;;;;;;45.42;11.32;;;28.30;55.90;;;;;;4928613;29;20048;-59
2022/10/11 06:05:41;;;;;;;80.70;13.38;;;28.30;61.10;;;;;;4924779;29;20163;-60
2022/10/11 06:08:09;;;;;;;55.35;11.70;;;28.50;55.30;;;;;;4928067;29;20081;-61
2022/10/11 06:10:37;;;;;;;78.05;13.25;;;28.50;55.50;;;;;;4927629;29;20609;-60
2022/10/11 06:13:04;;;;;;;58.85;11.48;;;28.50;55.50;;;;;;4927385;29;20120;-58
2022/10/11 06:15:30;;;;;;;66.35;10.95;;;28.50;55.10;;;;;;4928459;29;20130;-61
2022/10/11 06:17:58;;;;;;;48.70;10.20;;;28.50;54.90;;;;;;4928473;29;20080;-62
2022/10/11 06:20:25;;;;;;;30.10;9.88;;;28.50;54.70;;;;;;4927009;29;20087;-62
2022/10/11 06:22:52;;;;;;;32.63;12.98;;;28.40;54.30;;;;;;4929125;29;20623;-61
2022/10/11 06:25:18;;;;;;;39.83;12.93;;;28.40;54.30;;;;;;4928528;28;20072;-62
2022/10/11 06:27:44;;;;;;;39.35;10.25;;;28.40;54.40;;;;;;4926525;29;20134;-61
2022/10/11 06:30:11;;;;;;;43.15;10.90;;;28.40;54.50;;;;;;4930804;29;20064;-59
2022/10/11 06:32:37;;;;;;;36.00;10.27;;;28.40;54.70;;;;;;4931716;28;20122;-60
2022/10/11 06:35:05;;;;;;;37.08;9.52;;;28.40;54.80;;;;;;4930857;29;20068;-61
2022/10/11 06:37:31;;;;;;;44.13;10.63;;;28.40;54.80;;;;;;4930899;29;20438;-62
2022/10/11 06:39:57;;;;;;;41.90;9.73;;;28.30;55.10;;;;;;4931721;28;20076;-61
2022/10/11 06:42:24;;;;;;;34.85;9.50;;;28.30;55.90;;;;;;4932209;29;20434;-62
2022/10/11 06:44:50;;;;;;;33.47;9.85;;;28.20;55.10;;;;;;4931439;29;20163;-60
2022/10/11 06:47:16;;;;;;;31.65;9.88;;;28.20;55.20;;;;;;4931551;29;20099;-59
2022/10/11 06:49:43;;;;;;;25.38;8.60;;;28.20;55.20;;;;;;4932231;29;20083;-60
2022/10/11 06:52:09;;;;;;;32.88;8.60;;;28.10;55.20;;;;;;4931449;29;20195;-60
2022/10/11 06:54:36;;;;;;;40.40;8.90;;;28.10;55.10;;;;;;4932071;29;20093;-61
2022/10/11 06:57:02;;;;;;;33.15;9.35;;;28.10;55.40;;;;;;4932366;28;20080;-60
2022/10/11 06:59:28;;;;;;;28.40;7.90;;;28.10;55.40;;;;;;4931371;29;20529;-59
2022/10/11 07:01:55;;;;;;;28.33;8.57;;;28.10;55.60;;;;;;4931402;29;20092;-61
2022/10/11 07:04:21;;;;;;;34.72;8.65;;;28.10;55.90;;;;;;4931680;29;20203;-62
2022/10/11 07:06:47;;;;;;;38.50;8.20;;;28.00;55.80;;;;;;4927875;29;20126;-62
2022/10/11 07:09:14;;;;;;;28.38;7.53;;;28.00;55.70;;;;;;4930767;29;20078;-61
2022/10/11 07:11:40;;;;;;;39.35;7.82;;;28.00;55.90;;;;;;4929444;29;20489;-60
2022/10/11 07:14:08;;;;;;;25.52;7.28;;;27.90;56.10;;;;;;4930494;29;20481;-61
2022/10/11 07:16:36;;;;;;;27.60;6.78;;;27.80;56.50;;;;;;5012438;28;20535;-61
2022/10/11 07:19:04;;;;;;;26.27;5.47;;;27.90;57.00;;;;;;4930451;29;20084;-57
2022/10/11 07:21:32;;;;;;;29.75;5.78;;;27.90;56.40;;;;;;4931298;29;20068;-65
2022/10/11 07:23:59;;;;;;;15.20;5.20;;;28.00;56.30;;;;;;4931440;29;20077;-65
2022/10/11 07:26:26;;;;;;;20.95;5.10;;;28.30;56.20;;;;;;4930066;28;20068;-65
2022/10/11 07:28:53;;;;;;;17.05;4.40;;;28.30;55.40;;;;;;4932332;29;20543;-65
2022/10/11 07:31:22;;;;;;;13.23;3.50;;;28.40;55.40;;;;;;4930257;29;20180;-66
2022/10/11 07:33:49;;;;;;;15.60;3.45;;;28.60;54.70;;;;;;4931377;29;20521;-63
2022/10/11 07:36:16;;;;;;;12.57;3.20;;;28.80;54.20;;;;;;4931523;29;20155;-64
2022/10/11 07:38:44;;;;;;;15.05;3.08;;;28.60;54.50;;;;;;4931516;29;20115;-65
2022/10/11 07:41:11;;;;;;;12.13;3.20;;;28.70;54.30;;;;;;4930503;29;20077;-65
2022/10/11 07:43:38;;;;;;;9.98;2.88;;;28.60;54.40;;;;;;4931341;29;20115;-65
2022/10/11 07:46:05;;;;;;;12.20;3.20;;;28.60;54.80;;;;;;4931089;29;20155;-65
2022/10/11 07:48:35;;;;;;;16.10;3.10;;;28.60;54.50;;;;;;4931869;29;20096;-65
2022/10/11 07:51:08;;;;;;;8.10;2.47;;;28.50;54.70;;;;;;4931504;29;20091;-65
2022/10/11 07:53:40;;;;;;;14.30;2.88;;;28.50;54.40;;;;;;4930285;29;20573;-64
2022/10/11 07:56:07;;;;;;;13.45;2.80;;;28.80;86.80;;;;;;4930761;29;20159;-65
2022/10/11 07:58:34;;;;;;;10.13;2.50;;;29.00;75.50;;;;;;4935626;28;20533;-67
2022/10/11 08:01:00;;;;;;;17.15;3.28;;;28.50;54.90;;;;;;4945246;28;20172;-68
2022/10/11 08:03:26;;;;;;;7.38;2.13;;;28.70;57.40;;;;;;4930214;29;20077;-65
2022/10/11 08:05:53;;;;;;;8.73;2.70;;;28.40;54.70;;;;;;4931194;29;20134;-68
2022/10/11 08:08:19;;;;;;;9.68;2.40;;;28.40;54.70;;;;;;4927763;29;20439;-65
2022/10/11 08:10:45;;;;;;;8.50;2.33;;;28.30;55.50;;;;;;4930567;29;20175;-67
2022/10/11 08:13:13;;;;;;;9.93;2.67;;;28.30;55.60;;;;;;4929819;29;20162;-65
2022/10/11 08:15:39;;;;;;;8.63;2.80;;;28.30;55.50;;;;;;4930082;29;20104;-65
2022/10/11 08:18:06;;;;;;;11.82;2.63;;;28.30;55.40;;;;;;4929948;29;20088;-64
2022/10/11 08:20:32;;;;;;;13.50;2.78;;;28.40;55.20;;;;;;4929985;29;20577;-64
2022/10/11 08:22:59;;;;;;;14.30;2.65;;;28.30;55.90;;;;;;4929674;29;20076;-64
2022/10/11 08:25:25;;;;;;;14.60;3.17;;;28.20;79.50;;;;;;4930718;28;20076;-65
2022/10/11 08:27:52;;;;;;;10.02;2.47;;;27.80;82.10;;;;;;4930181;29;20122;-64
2022/10/11 08:30:18;;;;;;;8.98;2.58;;;28.00;56.30;;;;;;4929940;29;20552;-65
2022/10/11 08:32:45;;;;;;;10.30;2.35;;;28.00;56.50;;;;;;4930661;29;20125;-65
2022/10/11 08:35:11;;;;;;;8.95;2.63;;;27.50;81.10;;;;;;4929304;29;20566;-65
2022/10/11 08:37:38;;;;;;;12.35;2.40;;;;;;;;;;4928914;29;20070;-66
2022/10/11 08:40:05;;;;;;;11.82;3.22;;;27.90;63.10;;;;;;4929947;29;20062;-66
2022/10/11 08:42:47;;;;;;;11.55;2.95;;;27.80;56.50;;;;;;4928782;29;20032;-65
2022/10/11 08:45:49;;;;;;;9.63;3.20;;;27.80;57.20;;;;;;4929829;29;20064;-66
2022/10/11 08:48:20;;;;;;;10.75;3.28;;;27.60;84.40;;;;;;4928383;29;20055;-66
2022/10/11 08:50:50;;;;;;;11.90;2.90;;;27.90;91.70;;;;;;4928714;29;20141;-64
2022/10/11 08:53:34;;;;;;;11.20;3.10;;;27.40;90.50;;;;;;4929796;29;20084;-65
2022/10/11 08:56:01;;;;;;;15.60;3.22;;;27.60;57.50;;;;;;4929127;29;20096;-65
2022/10/11 08:58:45;;;;;;;11.05;2.90;;;27.80;89.10;;;;;;4930068;29;20075;-65
2022/10/11 09:01:20;;;;;;;11.93;3.28;;;27.60;58.00;;;;;;4928928;29;20534;-65
2022/10/11 09:03:48;;;;;;;15.55;3.47;;;27.50;57.70;;;;;;4929989;29;20458;-65
2022/10/11 09:06:20;;;;;;;14.60;3.50;;;27.50;57.80;;;;;;4929309;29;20099;-65
2022/10/11 09:09:05;;;;;;;12.20;3.53;;;27.50;58.20;;;;;;4926082;29;20072;-65
2022/10/11 09:12:26;;;;;;;18.90;3.03;;;27.30;70.00;;;;;;4929371;29;20083;-66
2022/10/11 09:15:18;;;;;;;15.88;3.92;;;27.30;58.70;;;;;;4931420;28;20626;-64
2022/10/11 09:18:03;;;;;;;11.38;2.80;;;27.30;58.70;;;;;;4927555;29;20542;-65
2022/10/11 09:20:51;;;;;;;8.95;3.10;;;27.30;58.80;;;;;;4929177;29;20531;-65
2022/10/11 09:23:39;;;;;;;14.75;3.53;;;27.20;58.80;;;;;;4928522;29;20581;-66
2022/10/11 09:26:27;;;;;;;10.02;2.97;;;27.20;59.00;;;;;;4929051;28;20079;-64
2022/10/11 09:29:04;;;;;;;10.63;2.80;;;27.20;59.10;;;;;;4928722;29;20130;-65
2022/10/11 09:31:31;;;;;;;12.02;2.83;;;27.20;59.20;;;;;;4929212;29;20076;-67
2022/10/11 09:34:05;;;;;;;16.60;2.97;;;27.20;59.20;;;;;;4928630;29;20095;-65
2022/10/11 09:36:48;;;;;;;12.05;3.75;;;27.10;59.40;;;;;;4929374;29;20080;-65
2022/10/11 09:39:34;;;;;;;9.73;3.40;;;27.10;60.50;;;;;;4929191;29;20076;-67
2022/10/11 09:42:06;;;;;;;18.60;4.03;;;27.00;60.30;;;;;;4928819;29;20195;-65
2022/10/11 09:44:44;;;;;;;12.65;3.33;;;27.00;59.70;;;;;;4928381;29;20084;-65
2022/10/11 09:47:23;;;;;;;15.57;3.45;;;26.90;59.50;;;;;;4927642;29;20443;-67
2022/10/11 09:50:05;;;;;;;12.88;2.88;;;26.90;59.80;;;;;;4928914;29;20103;-67
2022/10/11 09:52:32;;;;;;;10.40;3.03;;;26.90;59.70;;;;;;4927257;29;20183;-65
2022/10/11 09:55:00;;;;;;;10.75;3.08;;;26.80;59.90;;;;;;4929506;29;20093;-66
2022/10/11 09:57:31;;;;;;;17.90;3.03;;;26.80;59.80;;;;;;4928638;29;20524;-66
2022/10/11 10:00:07;;;;;;;13.55;3.28;;;26.80;59.90;;;;;;4929507;29;20498;-65
2022/10/11 10:03:03;;;;;;;13.90;3.08;;;26.80;59.50;;;;;;4928844;29;20068;-65
2022/10/11 10:05:32;;;;;;;9.23;2.40;;;26.80;59.40;;;;;;4932612;28;20119;-66
2022/10/11 10:08:03;;;;;;;12.40;2.70;;;26.70;59.60;;;;;;4930453;29;20105;-64
2022/10/11 10:11:00;;;;;;;17.75;3.10;;;26.70;59.50;;;;;;4931208;28;20098;-65
2022/10/11 10:13:35;;;;;;;10.55;2.67;;;26.70;59.60;;;;;;5025289;28;20113;-67
2022/10/11 10:16:02;;;;;;;14.52;3.22;;;26.60;59.60;;;;;;5023792;28;20090;-64
2022/10/11 10:18:41;;;;;;;9.68;2.75;;;26.60;59.90;;;;;;5024715;28;20145;-67
2022/10/11 10:21:12;;;;;;;13.23;3.03;;;26.50;60.40;;;;;;5011709;28;20105;-66
2022/10/11 10:23:40;;;;;;;10.52;3.03;;;26.40;60.70;;;;;;5023892;28;20117;-64
2022/10/11 10:26:19;;;;;;;13.80;3.03;;;26.40;60.30;;;;;;5029093;28;20086;-65
2022/10/11 10:29:07;;;;;;;7.93;2.63;;;26.30;60.50;;;;;;5023009;28;20078;-64
2022/10/11 10:31:40;;;;;;;9.50;2.80;;;26.30;61.00;;;;;;5024759;28;20184;-64
2022/10/11 10:34:30;;;;;;;14.75;3.40;;;26.20;61.00;;;;;;5023368;28;20177;-65
2022/10/11 10:37:19;;;;;;;11.18;3.03;;;26.20;61.50;;;;;;5017443;28;20094;-65
2022/10/11 10:40:02;;;;;;;11.55;2.97;;;26.10;61.90;;;;;;5024069;28;20094;-65
2022/10/11 10:42:29;;;;;;;8.48;2.33;;;26.10;61.60;;;;;;5005893;28;20086;-66
2022/10/11 10:44:58;;;;;;;8.95;2.55;;;26.10;61.80;;;;;;5021678;28;20113;-65
2022/10/11 10:47:43;;;;;;;9.63;2.30;;;26.00;62.10;;;;;;5017867;28;20132;-66
2022/10/11 10:50:22;;;;;;;14.07;2.72;;;26.00;62.20;;;;;;4960053;28;20565;-66
2022/10/11 10:53:22;;;;;;;13.13;2.38;;;26.00;62.40;;;;;;4931328;29;20458;-66
2022/10/11 10:56:18;;;;;;;11.45;2.70;;;26.00;62.40;;;;;;4932205;29;20071;-66
2022/10/11 10:59:12;;;;;;;12.82;3.10;;;26.00;62.20;;;;;;4932211;28;21553;-64
2022/10/11 11:02:08;;;;;;;11.65;2.92;;;26.00;62.50;;;;;;4930491;29;20100;-65
2022/10/11 11:04:36;;;;;;;15.15;2.70;;;25.90;62.20;;;;;;4941093;28;20095;-66
2022/10/11 11:07:24;;;;;;;11.52;3.17;;;25.80;62.40;;;;;;4930699;29;20557;-64
2022/10/11 11:10:03;;;;;;;10.20;3.22;;;25.80;62.50;;;;;;4927531;29;20567;-66
2022/10/11 11:12:57;;;;;;;11.93;2.72;;;25.80;62.60;;;;;;4930372;29;20159;-64
2022/10/11 11:15:35;;;;;;;12.75;3.13;;;25.80;62.80;;;;;;4942103;29;20080;-66
2022/10/11 11:18:27;;;;;;;10.27;2.90;;;25.70;63.00;;;;;;4930494;29;20167;-64
2022/10/11 11:21:15;;;;;;;11.23;3.47;;;25.70;63.90;;;;;;4930649;29;20126;-64
2022/10/11 11:24:17;;;;;;;18.88;4.40;;;25.70;63.10;;;;;;4930659;29;20499;-65
2022/10/11 11:26:54;;;;;;;20.98;4.90;;;25.60;63.20;;;;;;4929794;28;20079;-65
2022/10/11 11:29:20;;;;;;;;;;;25.60;63.40;;;;;;4929663;29;20111;-64
2022/10/11 11:32:20;;;;;;;23.27;6.25;;;25.50;63.60;;;;;;4930881;29;19966;-66
2022/10/11 11:34:52;;;;;;;34.47;7.30;;;25.50;64.10;;;;;;4945121;29;20096;-66
2022/10/11 11:37:41;;;;;;;31.70;8.60;;;25.40;64.10;;;;;;4930409;29;20080;-65
2022/10/11 11:40:20;;;;;;;44.40;9.07;;;25.40;64.70;;;;;;4929260;29;20561;-67
2022/10/11 11:43:00;;;;;;;41.85;9.45;;;25.40;64.80;;;;;;4929616;29;20163;-66
2022/10/11 11:45:46;;;;;;;53.28;9.93;;;25.40;64.60;;;;;;4930009;29;20118;-67
2022/10/11 11:48:20;;;;;;;47.38;13.05;;;25.40;65.20;;;;;;4930690;29;20151;-66
2022/10/11 11:51:04;;;;;;;46.70;12.02;;;25.40;65.30;;;;;;4930647;29;20073;-66
2022/10/11 11:53:49;;;;;;;54.05;13.38;;;25.30;65.30;;;;;;4930306;29;20092;-65
2022/10/11 11:56:26;;;;;;;49.83;13.20;;;25.40;66.10;;;;;;4930160;29;20092;-67
2022/10/11 11:59:08;;;;;;;54.55;13.38;;;25.30;66.20;;;;;;4930214;29;20143;-65
2022/10/11 12:02:15;;;;;;;48.05;12.52;;;25.30;66.10;;;;;;4929902;29;20207;-65
2022/10/11 12:04:43;;;;;;;50.93;13.07;;;25.20;66.10;;;;;;4930565;29;20092;-67
2022/10/11 12:07:12;;;;;;;65.28;14.30;;;25.20;66.40;;;;;;4930835;29;20068;-67
2022/10/11 12:09:42;;;;;;;53.75;14.77;;;25.20;66.70;;;;;;4929478;29;20167;-67
2022/10/11 12:12:34;;;;;;;74.65;14.75;;;25.20;67.00;;;;;;4927555;29;20076;-65
2022/10/11 12:15:14;;;;;;;86.28;18.25;;;25.20;66.90;;;;;;4942414;28;20605;-65
2022/10/11 12:17:56;;;;;;;93.97;20.10;;;25.10;66.50;;;;;;4929307;29;20077;-64
2022/10/11 12:20:25;;;;;;;106.80;23.25;;;25.10;66.50;;;;;;4928766;29;20092;-66
2022/10/11 12:22:59;;;;;;;95.57;21.95;;;25.10;66.70;;;;;;4930497;29;20156;-67
2022/10/11 12:25:25;;;;;;;103.10;23.05;;;25.10;66.80;;;;;;4930554;28;20146;-66
2022/10/11 12:27:54;;;;;;;94.75;22.80;;;25.00;67.50;;;;;;4928446;29;20107;-66
2022/10/11 12:30:54;;;;;;;93.15;22.88;;;25.00;67.50;;;;;;4929681;29;20090;-66
2022/10/11 12:33:24;;;;;;;111.38;25.58;;;25.00;67.60;;;;;;4929037;29;20096;-67
2022/10/11 12:35:53;;;;;;;104.60;25.30;;;25.00;67.90;;;;;;4929400;29;20135;-67
2022/10/11 12:38:33;;;;;;;113.88;27.33;;;24.90;68.20;;;;;;4929795;29;20092;-66
2022/10/11 12:41:08;;;;;;;106.93;26.10;;;24.90;68.30;;;;;;4929282;29;20096;-65
2022/10/11 12:43:50;;;;;;;127.38;26.17;;;24.90;68.60;;;;;;4930027;29;20430;-65
2022/10/11 12:46:38;;;;;;;136.13;27.20;;;24.90;68.20;;;;;;4928884;29;20534;-66
2022/10/11 12:49:31;;;;;;;114.10;25.80;;;24.90;68.10;;;;;;4928858;29;20095;-65
2022/10/11 12:52:01;;;;;;;112.78;26.30;;;24.90;68.60;;;;;;4929420;29;20084;-65
2022/10/11 12:54:58;;;;;;;106.07;26.85;;;24.90;68.60;;;;;;4928928;29;20088;-66
2022/10/11 12:57:30;;;;;;;117.87;26.57;;;24.90;68.00;;;;;;4930081;29;20069;-66
2022/10/11 13:00:29;;;;;;;115.63;26.80;;;24.80;68.10;;;;;;4928930;29;20350;-67
2022/10/11 13:03:21;;;;;;;117.57;26.00;;;24.70;68.70;;;;;;4929823;29;20099;-66
2022/10/11 13:05:48;;;;;;;117.03;26.80;;;24.70;68.70;;;;;;4928156;29;20073;-66
2022/10/11 13:08:32;;;;;;;110.40;27.55;;;24.70;68.90;;;;;;4928293;29;20150;-66
2022/10/11 13:11:03;;;;;;;110.85;26.50;;;24.70;69.30;;;;;;4927550;29;20084;-65